sensor_id;sensor_type;location;lat;lon;timestamp;P1;durP1;ratioP1;P2;durP2;ratioP2
69126;SDS011;56688;50.234;19.292;2023-07-13T00:07:08;5.60;;;3.30;;
69126;SDS011;56688;50.234;19.292;2023-07-13T00:09:36;5.70;;;3.70;;
69126;SDS011;56688;50.234;19.292;2023-07-13T00:12:03;6.20;;;3.50;;
69126;SDS011;56688;50.234;19.292;2023-07-13T00:14:30;8.00;;;3.30;;
69126;SDS011;56688;50.234;19.292;2023-07-13T00:16:57;3.80;;;2.80;;
69126;SDS011;56688;50.234;19.292;2023-07-13T00:19:27;5.70;;;3.40;;
69126;SDS011;56688;50.234;19.292;2023-07-13T00:21:54;8.90;;;3.60;;
69126;SDS011;56688;50.234;19.292;2023-07-13T00:24:22;4.70;;;3.40;;
69126;SDS011;56688;50.234;19.292;2023-07-13T00:26:51;6.40;;;4.00;;
69126;SDS011;56688;50.234;19.292;2023-07-13T00:29:18;7.60;;;3.90;;
69126;SDS011;56688;50.234;19.292;2023-07-13T00:31:45;4.90;;;3.30;;
69126;SDS011;56688;50.234;19.292;2023-07-13T00:34:12;8.00;;;3.40;;
69126;SDS011;56688;50.234;19.292;2023-07-13T00:36:40;9.30;;;3.70;;
69126;SDS011;56688;50.234;19.292;2023-07-13T00:39:07;7.60;;;3.60;;
69126;SDS011;56688;50.234;19.292;2023-07-13T00:42:42;3.70;;;3.00;;
69126;SDS011;56688;50.234;19.292;2023-07-13T00:48:40;5.40;;;3.60;;
69126;SDS011;56688;50.234;19.292;2023-07-13T00:52:09;6.70;;;3.40;;
69126;SDS011;56688;50.234;19.292;2023-07-13T00:55:14;7.60;;;3.20;;
69126;SDS011;56688;50.234;19.292;2023-07-13T00:57:43;5.70;;;3.50;;
69126;SDS011;56688;50.234;19.292;2023-07-13T01:00:11;5.20;;;3.10;;
69126;SDS011;56688;50.234;19.292;2023-07-13T01:02:39;5.90;;;3.20;;
69126;SDS011;56688;50.234;19.292;2023-07-13T01:05:11;4.20;;;3.00;;
69126;SDS011;56688;50.234;19.292;2023-07-13T01:07:40;3.60;;;2.90;;
69126;SDS011;56688;50.234;19.292;2023-07-13T01:10:12;5.20;;;3.20;;
69126;SDS011;56688;50.234;19.292;2023-07-13T01:12:39;3.60;;;2.90;;
69126;SDS011;56688;50.234;19.292;2023-07-13T01:18:06;4.40;;;2.90;;
69126;SDS011;56688;50.234;19.292;2023-07-13T01:20:36;5.80;;;3.10;;
69126;SDS011;56688;50.234;19.292;2023-07-13T01:23:05;4.30;;;3.30;;
69126;SDS011;56688;50.234;19.292;2023-07-13T01:25:35;4.30;;;3.20;;
69126;SDS011;56688;50.234;19.292;2023-07-13T01:28:04;6.80;;;3.50;;
69126;SDS011;56688;50.234;19.292;2023-07-13T01:30:32;4.50;;;3.10;;
69126;SDS011;56688;50.234;19.292;2023-07-13T01:33:00;7.40;;;3.80;;
69126;SDS011;56688;50.234;19.292;2023-07-13T01:35:28;4.80;;;3.80;;
69126;SDS011;56688;50.234;19.292;2023-07-13T01:37:55;5.80;;;3.80;;
69126;SDS011;56688;50.234;19.292;2023-07-13T01:40:23;6.60;;;3.80;;
69126;SDS011;56688;50.234;19.292;2023-07-13T01:42:51;7.20;;;3.80;;
69126;SDS011;56688;50.234;19.292;2023-07-13T01:45:19;6.90;;;4.30;;
69126;SDS011;56688;50.234;19.292;2023-07-13T01:47:46;5.10;;;3.90;;
69126;SDS011;56688;50.234;19.292;2023-07-13T01:50:13;6.00;;;3.90;;
69126;SDS011;56688;50.234;19.292;2023-07-13T01:52:40;5.10;;;4.00;;
69126;SDS011;56688;50.234;19.292;2023-07-13T01:55:07;6.80;;;4.60;;
69126;SDS011;56688;50.234;19.292;2023-07-13T01:57:35;5.70;;;3.90;;
69126;SDS011;56688;50.234;19.292;2023-07-13T02:00:03;6.00;;;3.90;;
69126;SDS011;56688;50.234;19.292;2023-07-13T02:02:41;4.80;;;4.00;;
69126;SDS011;56688;50.234;19.292;2023-07-13T02:05:12;4.40;;;3.70;;
69126;SDS011;56688;50.234;19.292;2023-07-13T02:07:40;6.10;;;4.00;;
69126;SDS011;56688;50.234;19.292;2023-07-13T02:10:13;6.90;;;4.20;;
69126;SDS011;56688;50.234;19.292;2023-07-13T02:13:17;5.50;;;4.10;;
69126;SDS011;56688;50.234;19.292;2023-07-13T02:15:45;7.80;;;4.60;;
69126;SDS011;56688;50.234;19.292;2023-07-13T02:18:12;7.10;;;4.70;;
69126;SDS011;56688;50.234;19.292;2023-07-13T02:20:43;5.80;;;4.10;;
69126;SDS011;56688;50.234;19.292;2023-07-13T02:23:10;6.80;;;3.80;;
69126;SDS011;56688;50.234;19.292;2023-07-13T02:25:38;4.50;;;3.30;;
69126;SDS011;56688;50.234;19.292;2023-07-13T02:28:05;5.00;;;3.60;;
69126;SDS011;56688;50.234;19.292;2023-07-13T02:30:34;4.50;;;3.60;;
69126;SDS011;56688;50.234;19.292;2023-07-13T02:33:01;5.30;;;3.70;;
69126;SDS011;56688;50.234;19.292;2023-07-13T02:35:28;6.70;;;4.00;;
69126;SDS011;56688;50.234;19.292;2023-07-13T02:37:57;5.20;;;3.50;;
69126;SDS011;56688;50.234;19.292;2023-07-13T02:40:25;5.60;;;4.20;;
69126;SDS011;56688;50.234;19.292;2023-07-13T02:42:53;7.10;;;4.10;;
69126;SDS011;56688;50.234;19.292;2023-07-13T02:45:20;6.70;;;3.90;;
69126;SDS011;56688;50.234;19.292;2023-07-13T02:47:53;5.10;;;4.00;;
69126;SDS011;56688;50.234;19.292;2023-07-13T03:22:43;4.50;;;2.80;;
69126;SDS011;56688;50.234;19.292;2023-07-13T03:29:07;4.90;;;3.00;;
69126;SDS011;56688;50.234;19.292;2023-07-13T03:32:19;3.00;;;2.50;;
69126;SDS011;56688;50.234;19.292;2023-07-13T03:35:16;5.00;;;2.60;;
69126;SDS011;56688;50.234;19.292;2023-07-13T03:45:20;5.30;;;3.50;;
69126;SDS011;56688;50.234;19.292;2023-07-13T03:47:47;4.10;;;3.10;;
69126;SDS011;56688;50.234;19.292;2023-07-13T03:50:16;6.50;;;3.20;;
69126;SDS011;56688;50.234;19.292;2023-07-13T03:52:43;5.40;;;3.30;;
69126;SDS011;56688;50.234;19.292;2023-07-13T03:55:14;3.70;;;3.30;;
69126;SDS011;56688;50.234;19.292;2023-07-13T04:01:06;5.30;;;3.90;;
69126;SDS011;56688;50.234;19.292;2023-07-13T04:03:35;5.40;;;3.70;;
69126;SDS011;56688;50.234;19.292;2023-07-13T04:06:07;4.70;;;3.70;;
69126;SDS011;56688;50.234;19.292;2023-07-13T04:08:43;6.00;;;3.40;;
69126;SDS011;56688;50.234;19.292;2023-07-13T04:11:10;4.60;;;3.50;;
69126;SDS011;56688;50.234;19.292;2023-07-13T04:13:41;5.00;;;4.10;;
69126;SDS011;56688;50.234;19.292;2023-07-13T04:16:18;4.80;;;3.80;;
69126;SDS011;56688;50.234;19.292;2023-07-13T04:21:22;8.60;;;4.90;;
69126;SDS011;56688;50.234;19.292;2023-07-13T04:23:49;10.10;;;4.60;;
69126;SDS011;56688;50.234;19.292;2023-07-13T04:26:17;6.60;;;4.80;;
69126;SDS011;56688;50.234;19.292;2023-07-13T04:28:44;6.90;;;4.60;;
69126;SDS011;56688;50.234;19.292;2023-07-13T04:31:11;7.60;;;4.80;;
69126;SDS011;56688;50.234;19.292;2023-07-13T04:33:39;6.90;;;4.50;;
69126;SDS011;56688;50.234;19.292;2023-07-13T04:36:13;11.00;;;4.80;;
69126;SDS011;56688;50.234;19.292;2023-07-13T04:38:50;6.80;;;5.10;;
69126;SDS011;56688;50.234;19.292;2023-07-13T04:41:18;7.60;;;5.60;;
69126;SDS011;56688;50.234;19.292;2023-07-13T04:43:46;8.80;;;5.20;;
69126;SDS011;56688;50.234;19.292;2023-07-13T04:46:14;8.40;;;5.10;;
69126;SDS011;56688;50.234;19.292;2023-07-13T04:48:44;8.70;;;5.40;;
69126;SDS011;56688;50.234;19.292;2023-07-13T04:51:12;6.50;;;5.40;;
69126;SDS011;56688;50.234;19.292;2023-07-13T04:53:39;7.50;;;5.20;;
69126;SDS011;56688;50.234;19.292;2023-07-13T04:56:06;8.50;;;5.60;;
69126;SDS011;56688;50.234;19.292;2023-07-13T04:58:33;7.60;;;5.20;;
69126;SDS011;56688;50.234;19.292;2023-07-13T05:01:01;6.90;;;5.20;;
69126;SDS011;56688;50.234;19.292;2023-07-13T05:03:30;8.40;;;4.90;;
69126;SDS011;56688;50.234;19.292;2023-07-13T05:05:59;7.50;;;4.90;;
69126;SDS011;56688;50.234;19.292;2023-07-13T05:08:28;9.30;;;5.00;;
69126;SDS011;56688;50.234;19.292;2023-07-13T05:10:55;7.70;;;5.20;;
69126;SDS011;56688;50.234;19.292;2023-07-13T05:13:22;6.30;;;4.80;;
69126;SDS011;56688;50.234;19.292;2023-07-13T05:15:56;7.20;;;5.60;;
69126;SDS011;56688;50.234;19.292;2023-07-13T05:18:25;8.30;;;5.00;;
69126;SDS011;56688;50.234;19.292;2023-07-13T05:20:59;6.00;;;4.50;;
69126;SDS011;56688;50.234;19.292;2023-07-13T05:23:46;8.70;;;5.10;;
69126;SDS011;56688;50.234;19.292;2023-07-13T05:26:14;5.70;;;4.60;;
69126;SDS011;56688;50.234;19.292;2023-07-13T05:28:42;6.30;;;4.80;;
69126;SDS011;56688;50.234;19.292;2023-07-13T05:31:10;7.00;;;5.10;;
69126;SDS011;56688;50.234;19.292;2023-07-13T05:33:38;6.50;;;4.60;;
69126;SDS011;56688;50.234;19.292;2023-07-13T05:36:06;5.60;;;4.50;;
69126;SDS011;56688;50.234;19.292;2023-07-13T05:38:34;7.40;;;4.70;;
69126;SDS011;56688;50.234;19.292;2023-07-13T05:41:01;7.70;;;4.30;;
69126;SDS011;56688;50.234;19.292;2023-07-13T05:43:31;7.50;;;3.90;;
69126;SDS011;56688;50.234;19.292;2023-07-13T05:46:02;6.90;;;4.00;;
69126;SDS011;56688;50.234;19.292;2023-07-13T05:48:49;5.50;;;4.60;;
69126;SDS011;56688;50.234;19.292;2023-07-13T05:51:25;7.90;;;3.70;;
69126;SDS011;56688;50.234;19.292;2023-07-13T05:53:55;5.90;;;4.30;;
69126;SDS011;56688;50.234;19.292;2023-07-13T05:56:23;6.80;;;4.30;;
69126;SDS011;56688;50.234;19.292;2023-07-13T05:58:50;5.60;;;4.30;;
69126;SDS011;56688;50.234;19.292;2023-07-13T06:01:17;5.00;;;3.90;;
69126;SDS011;56688;50.234;19.292;2023-07-13T06:03:46;7.40;;;4.10;;
69126;SDS011;56688;50.234;19.292;2023-07-13T06:06:14;7.30;;;4.00;;
69126;SDS011;56688;50.234;19.292;2023-07-13T06:08:42;8.50;;;4.40;;
69126;SDS011;56688;50.234;19.292;2023-07-13T06:11:12;5.30;;;4.40;;
69126;SDS011;56688;50.234;19.292;2023-07-13T06:13:41;6.10;;;4.30;;
69126;SDS011;56688;50.234;19.292;2023-07-13T06:16:08;4.80;;;4.00;;
69126;SDS011;56688;50.234;19.292;2023-07-13T06:18:37;6.70;;;4.20;;
69126;SDS011;56688;50.234;19.292;2023-07-13T06:21:06;5.90;;;4.10;;
69126;SDS011;56688;50.234;19.292;2023-07-13T06:23:35;5.90;;;4.30;;
69126;SDS011;56688;50.234;19.292;2023-07-13T06:26:04;7.20;;;4.40;;
69126;SDS011;56688;50.234;19.292;2023-07-13T06:28:32;7.60;;;4.20;;
69126;SDS011;56688;50.234;19.292;2023-07-13T06:31:00;6.30;;;4.40;;
69126;SDS011;56688;50.234;19.292;2023-07-13T06:33:28;7.50;;;5.10;;
69126;SDS011;56688;50.234;19.292;2023-07-13T06:35:56;5.80;;;4.30;;
69126;SDS011;56688;50.234;19.292;2023-07-13T06:38:24;9.60;;;5.00;;
69126;SDS011;56688;50.234;19.292;2023-07-13T06:40:54;8.70;;;4.70;;
69126;SDS011;56688;50.234;19.292;2023-07-13T06:43:24;6.60;;;4.70;;
69126;SDS011;56688;50.234;19.292;2023-07-13T06:45:54;7.70;;;4.90;;
69126;SDS011;56688;50.234;19.292;2023-07-13T06:48:24;10.00;;;4.90;;
69126;SDS011;56688;50.234;19.292;2023-07-13T06:50:51;11.40;;;5.30;;
69126;SDS011;56688;50.234;19.292;2023-07-13T06:53:20;9.20;;;5.50;;
69126;SDS011;56688;50.234;19.292;2023-07-13T06:55:49;10.70;;;5.40;;
69126;SDS011;56688;50.234;19.292;2023-07-13T06:58:18;9.10;;;4.70;;
69126;SDS011;56688;50.234;19.292;2023-07-13T07:00:46;11.30;;;4.80;;
69126;SDS011;56688;50.234;19.292;2023-07-13T07:03:14;9.00;;;4.60;;
69126;SDS011;56688;50.234;19.292;2023-07-13T07:05:41;12.60;;;4.70;;
69126;SDS011;56688;50.234;19.292;2023-07-13T07:08:09;12.70;;;5.10;;
69126;SDS011;56688;50.234;19.292;2023-07-13T07:10:37;9.90;;;4.70;;
69126;SDS011;56688;50.234;19.292;2023-07-13T07:13:04;8.70;;;4.50;;
69126;SDS011;56688;50.234;19.292;2023-07-13T07:15:31;9.90;;;4.60;;
69126;SDS011;56688;50.234;19.292;2023-07-13T07:17:59;8.90;;;4.30;;
69126;SDS011;56688;50.234;19.292;2023-07-13T07:20:26;9.80;;;4.30;;
69126;SDS011;56688;50.234;19.292;2023-07-13T07:22:54;10.40;;;4.70;;
69126;SDS011;56688;50.234;19.292;2023-07-13T07:25:21;9.60;;;4.50;;
69126;SDS011;56688;50.234;19.292;2023-07-13T07:27:51;7.70;;;3.90;;
69126;SDS011;56688;50.234;19.292;2023-07-13T07:30:29;9.90;;;4.50;;
69126;SDS011;56688;50.234;19.292;2023-07-13T07:33:02;6.60;;;4.00;;
69126;SDS011;56688;50.234;19.292;2023-07-13T07:35:31;8.10;;;4.10;;
69126;SDS011;56688;50.234;19.292;2023-07-13T07:38:04;6.10;;;4.10;;
69126;SDS011;56688;50.234;19.292;2023-07-13T07:40:32;8.30;;;4.30;;
69126;SDS011;56688;50.234;19.292;2023-07-13T07:43:08;8.40;;;3.70;;
69126;SDS011;56688;50.234;19.292;2023-07-13T07:45:36;7.30;;;4.20;;
69126;SDS011;56688;50.234;19.292;2023-07-13T07:48:05;8.60;;;4.00;;
69126;SDS011;56688;50.234;19.292;2023-07-13T07:50:32;10.40;;;4.20;;
69126;SDS011;56688;50.234;19.292;2023-07-13T07:53:00;7.20;;;3.80;;
69126;SDS011;56688;50.234;19.292;2023-07-13T07:55:29;9.00;;;4.40;;
69126;SDS011;56688;50.234;19.292;2023-07-13T07:58:00;8.20;;;4.60;;
69126;SDS011;56688;50.234;19.292;2023-07-13T08:00:32;9.80;;;4.20;;
69126;SDS011;56688;50.234;19.292;2023-07-13T08:03:28;9.00;;;4.70;;
69126;SDS011;56688;50.234;19.292;2023-07-13T08:06:07;8.20;;;4.40;;
69126;SDS011;56688;50.234;19.292;2023-07-13T08:08:42;7.30;;;3.80;;
69126;SDS011;56688;50.234;19.292;2023-07-13T08:11:09;5.60;;;3.40;;
69126;SDS011;56688;50.234;19.292;2023-07-13T08:13:57;8.60;;;3.50;;
69126;SDS011;56688;50.234;19.292;2023-07-13T08:16:26;5.40;;;3.40;;
69126;SDS011;56688;50.234;19.292;2023-07-13T08:23:23;6.40;;;3.70;;
69126;SDS011;56688;50.234;19.292;2023-07-13T08:26:00;8.60;;;3.90;;
69126;SDS011;56688;50.234;19.292;2023-07-13T08:33:14;3.90;;;2.70;;
69126;SDS011;56688;50.234;19.292;2023-07-13T08:37:35;7.30;;;3.10;;
69126;SDS011;56688;50.234;19.292;2023-07-13T08:48:33;8.90;;;2.90;;
69126;SDS011;56688;50.234;19.292;2023-07-13T08:58:19;4.60;;;2.50;;
69126;SDS011;56688;50.234;19.292;2023-07-13T09:05:43;4.50;;;2.90;;
69126;SDS011;56688;50.234;19.292;2023-07-13T09:09:19;3.70;;;2.50;;
69126;SDS011;56688;50.234;19.292;2023-07-13T09:17:31;6.20;;;3.00;;
69126;SDS011;56688;50.234;19.292;2023-07-13T09:27:54;7.00;;;3.60;;
69126;SDS011;56688;50.234;19.292;2023-07-13T09:30:33;5.50;;;3.60;;
69126;SDS011;56688;50.234;19.292;2023-07-13T09:33:23;5.40;;;3.50;;
69126;SDS011;56688;50.234;19.292;2023-07-13T09:40:46;6.20;;;3.50;;
69126;SDS011;56688;50.234;19.292;2023-07-13T09:46:53;9.20;;;4.40;;
69126;SDS011;56688;50.234;19.292;2023-07-13T09:49:31;5.60;;;3.90;;
69126;SDS011;56688;50.234;19.292;2023-07-13T09:56:21;5.70;;;3.50;;
69126;SDS011;56688;50.234;19.292;2023-07-13T09:58:52;6.10;;;3.50;;
69126;SDS011;56688;50.234;19.292;2023-07-13T10:01:31;7.60;;;3.80;;
69126;SDS011;56688;50.234;19.292;2023-07-13T10:07:44;7.70;;;3.70;;
69126;SDS011;56688;50.234;19.292;2023-07-13T10:10:13;4.10;;;3.40;;
69126;SDS011;56688;50.234;19.292;2023-07-13T10:12:43;7.50;;;4.80;;
69126;SDS011;56688;50.234;19.292;2023-07-13T10:15:15;6.60;;;4.50;;
69126;SDS011;56688;50.234;19.292;2023-07-13T10:17:54;10.70;;;5.10;;
69126;SDS011;56688;50.234;19.292;2023-07-13T10:20:22;8.80;;;5.10;;
69126;SDS011;56688;50.234;19.292;2023-07-13T10:22:55;7.00;;;4.30;;
69126;SDS011;56688;50.234;19.292;2023-07-13T10:25:30;7.50;;;4.30;;
69126;SDS011;56688;50.234;19.292;2023-07-13T10:28:04;8.50;;;3.70;;
69126;SDS011;56688;50.234;19.292;2023-07-13T10:33:18;6.80;;;3.80;;
69126;SDS011;56688;50.234;19.292;2023-07-13T10:35:47;7.80;;;3.50;;
69126;SDS011;56688;50.234;19.292;2023-07-13T10:38:22;5.10;;;3.00;;
69126;SDS011;56688;50.234;19.292;2023-07-13T10:43:34;5.60;;;2.60;;
69126;SDS011;56688;50.234;19.292;2023-07-13T10:46:06;4.80;;;2.00;;
69126;SDS011;56688;50.234;19.292;2023-07-13T10:48:35;4.80;;;2.30;;
69126;SDS011;56688;50.234;19.292;2023-07-13T10:51:04;5.70;;;2.00;;
69126;SDS011;56688;50.234;19.292;2023-07-13T10:53:34;4.50;;;1.60;;
69126;SDS011;56688;50.234;19.292;2023-07-13T10:56:04;3.60;;;1.50;;
69126;SDS011;56688;50.234;19.292;2023-07-13T10:59:01;1.80;;;1.40;;
69126;SDS011;56688;50.234;19.292;2023-07-13T11:01:46;3.20;;;1.40;;
69126;SDS011;56688;50.234;19.292;2023-07-13T11:04:18;2.50;;;1.50;;
69126;SDS011;56688;50.234;19.292;2023-07-13T11:06:47;4.00;;;1.80;;
69126;SDS011;56688;50.234;19.292;2023-07-13T11:11:44;4.80;;;1.60;;
69126;SDS011;56688;50.234;19.292;2023-07-13T11:16:47;3.10;;;1.80;;
69126;SDS011;56688;50.234;19.292;2023-07-13T11:22:01;5.50;;;2.30;;
69126;SDS011;56688;50.234;19.292;2023-07-13T11:24:29;7.00;;;2.50;;
69126;SDS011;56688;50.234;19.292;2023-07-13T11:33:01;7.90;;;2.90;;
69126;SDS011;56688;50.234;19.292;2023-07-13T11:38:36;7.50;;;2.30;;
69126;SDS011;56688;50.234;19.292;2023-07-13T11:41:06;5.20;;;2.20;;
69126;SDS011;56688;50.234;19.292;2023-07-13T11:43:43;4.00;;;2.00;;
69126;SDS011;56688;50.234;19.292;2023-07-13T11:46:12;8.00;;;2.40;;
69126;SDS011;56688;50.234;19.292;2023-07-13T11:48:41;4.40;;;2.10;;
69126;SDS011;56688;50.234;19.292;2023-07-13T11:51:21;4.80;;;2.00;;
69126;SDS011;56688;50.234;19.292;2023-07-13T11:53:50;4.80;;;2.10;;
69126;SDS011;56688;50.234;19.292;2023-07-13T11:56:23;3.90;;;2.20;;
69126;SDS011;56688;50.234;19.292;2023-07-13T11:58:53;4.70;;;1.90;;
69126;SDS011;56688;50.234;19.292;2023-07-13T12:01:23;3.60;;;1.90;;
69126;SDS011;56688;50.234;19.292;2023-07-13T12:03:53;9.00;;;2.80;;
69126;SDS011;56688;50.234;19.292;2023-07-13T12:08:51;5.20;;;2.90;;
69126;SDS011;56688;50.234;19.292;2023-07-13T12:11:18;9.10;;;4.20;;
69126;SDS011;56688;50.234;19.292;2023-07-13T12:13:47;15.90;;;5.80;;
69126;SDS011;56688;50.234;19.292;2023-07-13T12:16:15;18.90;;;6.60;;
69126;SDS011;56688;50.234;19.292;2023-07-13T12:18:43;14.30;;;6.60;;
69126;SDS011;56688;50.234;19.292;2023-07-13T12:21:17;11.90;;;6.10;;
69126;SDS011;56688;50.234;19.292;2023-07-13T12:23:47;13.40;;;6.70;;
69126;SDS011;56688;50.234;19.292;2023-07-13T12:26:16;10.40;;;5.50;;
69126;SDS011;56688;50.234;19.292;2023-07-13T12:31:22;4.90;;;3.60;;
69126;SDS011;56688;50.234;19.292;2023-07-13T12:36:40;4.90;;;2.40;;
69126;SDS011;56688;50.234;19.292;2023-07-13T12:44:21;4.20;;;2.20;;
69126;SDS011;56688;50.234;19.292;2023-07-13T12:46:56;3.80;;;2.00;;
69126;SDS011;56688;50.234;19.292;2023-07-13T12:49:30;6.50;;;2.10;;
69126;SDS011;56688;50.234;19.292;2023-07-13T12:52:02;2.60;;;2.00;;
69126;SDS011;56688;50.234;19.292;2023-07-13T12:54:38;3.10;;;2.10;;
69126;SDS011;56688;50.234;19.292;2023-07-13T12:57:13;3.90;;;2.00;;
69126;SDS011;56688;50.234;19.292;2023-07-13T12:59:43;3.60;;;2.00;;
69126;SDS011;56688;50.234;19.292;2023-07-13T13:02:22;4.90;;;2.30;;
69126;SDS011;56688;50.234;19.292;2023-07-13T13:04:56;2.60;;;2.00;;
69126;SDS011;56688;50.234;19.292;2023-07-13T13:07:24;2.70;;;2.10;;
69126;SDS011;56688;50.234;19.292;2023-07-13T13:09:56;7.30;;;2.70;;
69126;SDS011;56688;50.234;19.292;2023-07-13T13:12:23;8.50;;;4.70;;
69126;SDS011;56688;50.234;19.292;2023-07-13T13:14:53;8.10;;;5.10;;
69126;SDS011;56688;50.234;19.292;2023-07-13T13:17:21;14.40;;;7.40;;
69126;SDS011;56688;50.234;19.292;2023-07-13T13:19:51;11.70;;;6.40;;
69126;SDS011;56688;50.234;19.292;2023-07-13T13:22:22;6.80;;;3.20;;
69126;SDS011;56688;50.234;19.292;2023-07-13T13:24:49;5.10;;;2.40;;
69126;SDS011;56688;50.234;19.292;2023-07-13T13:27:17;6.50;;;2.80;;
69126;SDS011;56688;50.234;19.292;2023-07-13T13:29:46;6.80;;;3.00;;
69126;SDS011;56688;50.234;19.292;2023-07-13T13:32:13;5.10;;;2.50;;
69126;SDS011;56688;50.234;19.292;2023-07-13T13:34:41;2.80;;;2.20;;
69126;SDS011;56688;50.234;19.292;2023-07-13T13:37:12;4.10;;;2.40;;
69126;SDS011;56688;50.234;19.292;2023-07-13T13:39:44;3.10;;;2.30;;
69126;SDS011;56688;50.234;19.292;2023-07-13T13:42:28;2.30;;;2.00;;
69126;SDS011;56688;50.234;19.292;2023-07-13T13:44:55;3.10;;;2.10;;
69126;SDS011;56688;50.234;19.292;2023-07-13T13:47:31;3.00;;;1.80;;
69126;SDS011;56688;50.234;19.292;2023-07-13T13:49:59;2.60;;;1.90;;
69126;SDS011;56688;50.234;19.292;2023-07-13T13:52:27;2.40;;;1.70;;
69126;SDS011;56688;50.234;19.292;2023-07-13T13:54:54;2.20;;;1.60;;
69126;SDS011;56688;50.234;19.292;2023-07-13T13:57:23;2.30;;;1.50;;
69126;SDS011;56688;50.234;19.292;2023-07-13T13:59:51;3.20;;;1.70;;
69126;SDS011;56688;50.234;19.292;2023-07-13T14:02:22;2.40;;;1.80;;
69126;SDS011;56688;50.234;19.292;2023-07-13T14:04:53;4.40;;;1.70;;
69126;SDS011;56688;50.234;19.292;2023-07-13T14:07:23;4.40;;;1.80;;
69126;SDS011;56688;50.234;19.292;2023-07-13T14:09:50;3.20;;;1.70;;
69126;SDS011;56688;50.234;19.292;2023-07-13T14:12:18;2.40;;;1.90;;
69126;SDS011;56688;50.234;19.292;2023-07-13T14:14:46;2.40;;;2.00;;
69126;SDS011;56688;50.234;19.292;2023-07-13T14:17:17;3.80;;;2.60;;
69126;SDS011;56688;50.234;19.292;2023-07-13T14:19:49;3.70;;;2.40;;
69126;SDS011;56688;50.234;19.292;2023-07-13T14:22:18;2.80;;;2.30;;
69126;SDS011;56688;50.234;19.292;2023-07-13T14:24:45;4.30;;;2.50;;
69126;SDS011;56688;50.234;19.292;2023-07-13T14:27:12;2.10;;;1.90;;
69126;SDS011;56688;50.234;19.292;2023-07-13T14:29:39;4.30;;;1.80;;
69126;SDS011;56688;50.234;19.292;2023-07-13T14:32:10;2.70;;;1.70;;
69126;SDS011;56688;50.234;19.292;2023-07-13T14:34:38;2.00;;;1.70;;
69126;SDS011;56688;50.234;19.292;2023-07-13T14:37:11;2.90;;;1.90;;
69126;SDS011;56688;50.234;19.292;2023-07-13T14:39:42;2.50;;;1.90;;
69126;SDS011;56688;50.234;19.292;2023-07-13T14:42:10;2.30;;;1.60;;
69126;SDS011;56688;50.234;19.292;2023-07-13T14:44:37;3.00;;;1.80;;
69126;SDS011;56688;50.234;19.292;2023-07-13T14:47:05;3.10;;;1.90;;
69126;SDS011;56688;50.234;19.292;2023-07-13T14:49:38;2.00;;;1.80;;
69126;SDS011;56688;50.234;19.292;2023-07-13T14:52:13;2.10;;;1.90;;
69126;SDS011;56688;50.234;19.292;2023-07-13T14:54:43;4.10;;;2.40;;
69126;SDS011;56688;50.234;19.292;2023-07-13T14:57:12;3.70;;;2.30;;
69126;SDS011;56688;50.234;19.292;2023-07-13T14:59:40;4.30;;;2.20;;
69126;SDS011;56688;50.234;19.292;2023-07-13T15:02:13;2.50;;;2.00;;
69126;SDS011;56688;50.234;19.292;2023-07-13T15:04:42;2.80;;;2.10;;
69126;SDS011;56688;50.234;19.292;2023-07-13T15:07:13;4.80;;;2.10;;
69126;SDS011;56688;50.234;19.292;2023-07-13T15:09:42;3.60;;;2.00;;
69126;SDS011;56688;50.234;19.292;2023-07-13T15:12:09;2.40;;;1.80;;
69126;SDS011;56688;50.234;19.292;2023-07-13T15:14:36;1.80;;;1.60;;
69126;SDS011;56688;50.234;19.292;2023-07-13T15:17:03;2.50;;;1.70;;
69126;SDS011;56688;50.234;19.292;2023-07-13T15:19:31;2.30;;;1.60;;
69126;SDS011;56688;50.234;19.292;2023-07-13T15:21:58;1.50;;;1.30;;
69126;SDS011;56688;50.234;19.292;2023-07-13T15:24:26;3.80;;;1.40;;
69126;SDS011;56688;50.234;19.292;2023-07-13T15:26:53;1.70;;;1.60;;
69126;SDS011;56688;50.234;19.292;2023-07-13T15:29:20;1.40;;;1.30;;
69126;SDS011;56688;50.234;19.292;2023-07-13T15:31:46;2.20;;;1.50;;
69126;SDS011;56688;50.234;19.292;2023-07-13T15:34:14;2.10;;;1.50;;
69126;SDS011;56688;50.234;19.292;2023-07-13T15:36:43;3.20;;;1.70;;
69126;SDS011;56688;50.234;19.292;2023-07-13T15:39:13;5.50;;;1.90;;
69126;SDS011;56688;50.234;19.292;2023-07-13T15:41:43;3.00;;;1.80;;
69126;SDS011;56688;50.234;19.292;2023-07-13T15:46:58;2.50;;;1.50;;
69126;SDS011;56688;50.234;19.292;2023-07-13T15:49:27;4.70;;;1.70;;
69126;SDS011;56688;50.234;19.292;2023-07-13T15:51:54;2.40;;;1.50;;
69126;SDS011;56688;50.234;19.292;2023-07-13T15:54:22;2.80;;;1.90;;
69126;SDS011;56688;50.234;19.292;2023-07-13T15:56:52;2.10;;;1.60;;
69126;SDS011;56688;50.234;19.292;2023-07-13T15:59:21;1.70;;;1.50;;
69126;SDS011;56688;50.234;19.292;2023-07-13T16:01:49;3.10;;;1.60;;
69126;SDS011;56688;50.234;19.292;2023-07-13T16:04:16;5.30;;;1.80;;
69126;SDS011;56688;50.234;19.292;2023-07-13T16:06:46;1.70;;;1.60;;
69126;SDS011;56688;50.234;19.292;2023-07-13T16:09:17;4.30;;;1.60;;
69126;SDS011;56688;50.234;19.292;2023-07-13T16:11:49;2.30;;;1.70;;
69126;SDS011;56688;50.234;19.292;2023-07-13T16:14:17;2.60;;;1.70;;
69126;SDS011;56688;50.234;19.292;2023-07-13T16:16:45;1.90;;;1.60;;
69126;SDS011;56688;50.234;19.292;2023-07-13T16:19:12;2.00;;;1.80;;
69126;SDS011;56688;50.234;19.292;2023-07-13T16:21:40;2.20;;;1.80;;
69126;SDS011;56688;50.234;19.292;2023-07-13T16:24:16;2.80;;;1.90;;
69126;SDS011;56688;50.234;19.292;2023-07-13T16:26:44;2.90;;;1.70;;
69126;SDS011;56688;50.234;19.292;2023-07-13T16:29:12;2.30;;;1.90;;
69126;SDS011;56688;50.234;19.292;2023-07-13T16:31:56;8.70;;;2.20;;
69126;SDS011;56688;50.234;19.292;2023-07-13T16:34:24;2.80;;;2.00;;
69126;SDS011;56688;50.234;19.292;2023-07-13T16:36:52;2.90;;;1.90;;
69126;SDS011;56688;50.234;19.292;2023-07-13T16:39:20;2.00;;;1.90;;
69126;SDS011;56688;50.234;19.292;2023-07-13T16:41:51;3.10;;;2.00;;
69126;SDS011;56688;50.234;19.292;2023-07-13T16:44:21;2.10;;;1.90;;
69126;SDS011;56688;50.234;19.292;2023-07-13T16:46:50;3.80;;;1.90;;
69126;SDS011;56688;50.234;19.292;2023-07-13T16:49:23;2.00;;;1.80;;
69126;SDS011;56688;50.234;19.292;2023-07-13T16:51:52;3.00;;;2.20;;
69126;SDS011;56688;50.234;19.292;2023-07-13T16:54:19;3.30;;;2.60;;
69126;SDS011;56688;50.234;19.292;2023-07-13T16:56:48;4.60;;;4.00;;
69126;SDS011;56688;50.234;19.292;2023-07-13T16:59:18;3.60;;;2.40;;
69126;SDS011;56688;50.234;19.292;2023-07-13T17:01:46;2.60;;;2.20;;
69126;SDS011;56688;50.234;19.292;2023-07-13T17:04:15;6.00;;;2.30;;
69126;SDS011;56688;50.234;19.292;2023-07-13T17:09:14;7.70;;;4.70;;
69126;SDS011;56688;50.234;19.292;2023-07-13T17:11:41;2.70;;;2.20;;
69126;SDS011;56688;50.234;19.292;2023-07-13T17:14:13;4.80;;;2.80;;
69126;SDS011;56688;50.234;19.292;2023-07-13T17:16:47;4.60;;;3.00;;
69126;SDS011;56688;50.234;19.292;2023-07-13T17:19:15;4.90;;;3.40;;
69126;SDS011;56688;50.234;19.292;2023-07-13T17:21:44;7.20;;;3.50;;
69126;SDS011;56688;50.234;19.292;2023-07-13T17:24:15;6.00;;;3.20;;
69126;SDS011;56688;50.234;19.292;2023-07-13T17:26:44;3.60;;;2.30;;
69126;SDS011;56688;50.234;19.292;2023-07-13T17:29:13;3.50;;;2.50;;
69126;SDS011;56688;50.234;19.292;2023-07-13T17:31:40;3.40;;;2.70;;
69126;SDS011;56688;50.234;19.292;2023-07-13T17:34:09;3.30;;;2.70;;
69126;SDS011;56688;50.234;19.292;2023-07-13T17:36:38;41.70;;;21.30;;
69126;SDS011;56688;50.234;19.292;2023-07-13T17:39:15;40.10;;;23.20;;